sensor_id;sensor_type;location;lat;lon;timestamp;P1;durP1;ratioP1;P2;durP2;ratioP2
63782;SDS011;49925;52.522;5.732;2023-07-20T00:00:53;3.55;;;2.00;;
63782;SDS011;49925;52.522;5.732;2023-07-20T00:03:20;4.55;;;1.95;;
63782;SDS011;49925;52.522;5.732;2023-07-20T00:08:18;6.30;;;2.67;;
63782;SDS011;49925;52.522;5.732;2023-07-20T00:10:46;7.15;;;2.95;;
63782;SDS011;49925;52.522;5.732;2023-07-20T00:13:13;5.03;;;2.65;;
63782;SDS011;49925;52.522;5.732;2023-07-20T00:15:42;7.88;;;3.47;;
63782;SDS011;49925;52.522;5.732;2023-07-20T00:18:09;9.13;;;2.60;;
63782;SDS011;49925;52.522;5.732;2023-07-20T00:20:36;7.72;;;2.80;;
63782;SDS011;49925;52.522;5.732;2023-07-20T00:23:03;4.50;;;2.55;;
63782;SDS011;49925;52.522;5.732;2023-07-20T00:25:31;5.47;;;2.63;;
63782;SDS011;49925;52.522;5.732;2023-07-20T00:27:58;4.45;;;2.50;;
63782;SDS011;49925;52.522;5.732;2023-07-20T00:30:26;4.63;;;2.45;;
63782;SDS011;49925;52.522;5.732;2023-07-20T00:32:53;4.03;;;2.20;;
63782;SDS011;49925;52.522;5.732;2023-07-20T00:35:20;4.95;;;2.25;;
63782;SDS011;49925;52.522;5.732;2023-07-20T00:37:48;4.15;;;2.10;;
63782;SDS011;49925;52.522;5.732;2023-07-20T00:40:15;3.60;;;2.10;;
63782;SDS011;49925;52.522;5.732;2023-07-20T00:42:44;5.68;;;2.30;;
63782;SDS011;49925;52.522;5.732;2023-07-20T00:45:11;3.53;;;1.95;;
63782;SDS011;49925;52.522;5.732;2023-07-20T00:47:38;7.40;;;1.80;;
63782;SDS011;49925;52.522;5.732;2023-07-20T00:50:06;2.80;;;1.70;;
63782;SDS011;49925;52.522;5.732;2023-07-20T00:52:33;3.55;;;2.20;;
63782;SDS011;49925;52.522;5.732;2023-07-20T00:55:01;3.97;;;2.03;;
63782;SDS011;49925;52.522;5.732;2023-07-20T00:57:28;4.38;;;2.15;;
63782;SDS011;49925;52.522;5.732;2023-07-20T00:59:55;5.70;;;2.50;;
63782;SDS011;49925;52.522;5.732;2023-07-20T01:02:22;7.82;;;1.98;;
63782;SDS011;49925;52.522;5.732;2023-07-20T01:04:50;8.82;;;2.40;;
63782;SDS011;49925;52.522;5.732;2023-07-20T01:10:01;6.55;;;2.30;;
63782;SDS011;49925;52.522;5.732;2023-07-20T01:12:56;3.97;;;2.15;;
63782;SDS011;49925;52.522;5.732;2023-07-20T01:15:24;11.77;;;2.40;;
63782;SDS011;49925;52.522;5.732;2023-07-20T01:17:51;3.67;;;2.10;;
63782;SDS011;49925;52.522;5.732;2023-07-20T01:20:19;4.57;;;2.10;;
63782;SDS011;49925;52.522;5.732;2023-07-20T01:23:04;3.88;;;2.20;;
63782;SDS011;49925;52.522;5.732;2023-07-20T01:26:02;6.18;;;2.20;;
63782;SDS011;49925;52.522;5.732;2023-07-20T01:31:36;3.28;;;1.95;;
63782;SDS011;49925;52.522;5.732;2023-07-20T01:34:04;6.60;;;2.25;;
63782;SDS011;49925;52.522;5.732;2023-07-20T01:36:34;4.60;;;2.10;;
63782;SDS011;49925;52.522;5.732;2023-07-20T01:39:03;6.63;;;2.13;;
63782;SDS011;49925;52.522;5.732;2023-07-20T01:41:31;5.72;;;2.65;;
63782;SDS011;49925;52.522;5.732;2023-07-20T01:43:58;7.18;;;2.47;;
63782;SDS011;49925;52.522;5.732;2023-07-20T01:46:28;6.13;;;2.15;;
63782;SDS011;49925;52.522;5.732;2023-07-20T01:48:55;3.58;;;2.30;;
63782;SDS011;49925;52.522;5.732;2023-07-20T01:51:23;4.93;;;2.50;;
63782;SDS011;49925;52.522;5.732;2023-07-20T01:53:51;3.83;;;2.30;;
63782;SDS011;49925;52.522;5.732;2023-07-20T01:56:18;4.18;;;2.40;;
63782;SDS011;49925;52.522;5.732;2023-07-20T01:58:46;7.85;;;2.60;;
63782;SDS011;49925;52.522;5.732;2023-07-20T02:01:13;3.95;;;2.20;;
63782;SDS011;49925;52.522;5.732;2023-07-20T02:03:40;4.43;;;2.20;;
63782;SDS011;49925;52.522;5.732;2023-07-20T02:06:07;3.80;;;2.40;;
63782;SDS011;49925;52.522;5.732;2023-07-20T02:08:34;5.80;;;2.10;;
63782;SDS011;49925;52.522;5.732;2023-07-20T02:11:02;3.15;;;2.03;;
63782;SDS011;49925;52.522;5.732;2023-07-20T02:13:30;6.80;;;2.70;;
63782;SDS011;49925;52.522;5.732;2023-07-20T02:15:58;3.63;;;2.20;;
63782;SDS011;49925;52.522;5.732;2023-07-20T02:18:25;10.98;;;2.50;;
63782;SDS011;49925;52.522;5.732;2023-07-20T02:20:52;6.32;;;2.30;;
63782;SDS011;49925;52.522;5.732;2023-07-20T02:23:21;4.07;;;2.60;;
63782;SDS011;49925;52.522;5.732;2023-07-20T02:25:48;3.90;;;2.40;;
63782;SDS011;49925;52.522;5.732;2023-07-20T02:28:15;3.65;;;2.30;;
63782;SDS011;49925;52.522;5.732;2023-07-20T02:30:42;7.30;;;2.80;;
63782;SDS011;49925;52.522;5.732;2023-07-20T02:33:10;5.30;;;2.92;;
63782;SDS011;49925;52.522;5.732;2023-07-20T02:35:37;7.22;;;2.63;;
63782;SDS011;49925;52.522;5.732;2023-07-20T02:38:04;4.97;;;2.70;;
63782;SDS011;49925;52.522;5.732;2023-07-20T02:40:33;4.57;;;2.63;;
63782;SDS011;49925;52.522;5.732;2023-07-20T02:43:00;4.72;;;2.40;;
63782;SDS011;49925;52.522;5.732;2023-07-20T02:45:27;4.40;;;2.40;;
63782;SDS011;49925;52.522;5.732;2023-07-20T02:47:55;3.25;;;2.40;;
63782;SDS011;49925;52.522;5.732;2023-07-20T02:50:22;3.30;;;2.47;;
63782;SDS011;49925;52.522;5.732;2023-07-20T02:52:49;3.33;;;2.30;;
63782;SDS011;49925;52.522;5.732;2023-07-20T02:55:20;4.68;;;2.60;;
63782;SDS011;49925;52.522;5.732;2023-07-20T02:57:47;4.55;;;2.20;;
63782;SDS011;49925;52.522;5.732;2023-07-20T03:00:15;4.45;;;2.85;;
63782;SDS011;49925;52.522;5.732;2023-07-20T03:02:42;4.47;;;2.47;;
63782;SDS011;49925;52.522;5.732;2023-07-20T03:05:10;6.07;;;2.42;;
63782;SDS011;49925;52.522;5.732;2023-07-20T03:07:37;4.57;;;2.58;;
63782;SDS011;49925;52.522;5.732;2023-07-20T03:10:04;3.53;;;2.50;;
63782;SDS011;49925;52.522;5.732;2023-07-20T03:12:35;8.10;;;2.83;;
63782;SDS011;49925;52.522;5.732;2023-07-20T03:15:03;4.45;;;2.88;;
63782;SDS011;49925;52.522;5.732;2023-07-20T03:17:31;5.95;;;2.63;;
63782;SDS011;49925;52.522;5.732;2023-07-20T03:19:58;3.67;;;2.20;;
63782;SDS011;49925;52.522;5.732;2023-07-20T03:22:27;8.00;;;2.60;;
63782;SDS011;49925;52.522;5.732;2023-07-20T03:24:54;4.32;;;2.33;;
63782;SDS011;49925;52.522;5.732;2023-07-20T03:27:21;3.10;;;2.25;;
63782;SDS011;49925;52.522;5.732;2023-07-20T03:29:49;5.78;;;2.80;;
63782;SDS011;49925;52.522;5.732;2023-07-20T03:32:16;6.18;;;2.50;;
63782;SDS011;49925;52.522;5.732;2023-07-20T03:34:43;3.65;;;2.30;;
63782;SDS011;49925;52.522;5.732;2023-07-20T03:37:10;4.93;;;2.33;;
63782;SDS011;49925;52.522;5.732;2023-07-20T03:39:38;6.65;;;2.80;;
63782;SDS011;49925;52.522;5.732;2023-07-20T03:42:06;5.88;;;2.88;;
63782;SDS011;49925;52.522;5.732;2023-07-20T03:44:33;7.95;;;2.72;;
63782;SDS011;49925;52.522;5.732;2023-07-20T05:36:01;8.88;;;2.00;;
63782;SDS011;49925;52.522;5.732;2023-07-20T05:38:28;8.07;;;2.50;;
63782;SDS011;49925;52.522;5.732;2023-07-20T05:40:58;5.28;;;2.50;;
63782;SDS011;49925;52.522;5.732;2023-07-20T05:43:28;6.93;;;2.40;;
63782;SDS011;49925;52.522;5.732;2023-07-20T05:45:56;7.85;;;2.40;;
63782;SDS011;49925;52.522;5.732;2023-07-20T05:48:23;4.13;;;2.22;;
63782;SDS011;49925;52.522;5.732;2023-07-20T05:50:50;9.68;;;2.20;;
63782;SDS011;49925;52.522;5.732;2023-07-20T05:53:18;7.13;;;2.38;;
63782;SDS011;49925;52.522;5.732;2023-07-20T05:55:51;4.22;;;2.42;;
63782;SDS011;49925;52.522;5.732;2023-07-20T05:58:21;7.13;;;2.30;;
63782;SDS011;49925;52.522;5.732;2023-07-20T06:00:49;8.80;;;2.33;;
63782;SDS011;49925;52.522;5.732;2023-07-20T06:03:17;7.40;;;2.40;;
63782;SDS011;49925;52.522;5.732;2023-07-20T06:05:45;6.60;;;2.13;;
63782;SDS011;49925;52.522;5.732;2023-07-20T06:08:12;6.80;;;2.30;;
63782;SDS011;49925;52.522;5.732;2023-07-20T06:10:39;5.65;;;2.10;;
63782;SDS011;49925;52.522;5.732;2023-07-20T06:13:10;8.23;;;2.50;;
63782;SDS011;49925;52.522;5.732;2023-07-20T06:15:38;6.53;;;2.20;;
63782;SDS011;49925;52.522;5.732;2023-07-20T06:18:08;5.80;;;3.53;;
63782;SDS011;49925;52.522;5.732;2023-07-20T06:20:35;8.32;;;3.90;;
63782;SDS011;49925;52.522;5.732;2023-07-20T06:23:03;7.93;;;3.78;;
63782;SDS011;49925;52.522;5.732;2023-07-20T06:25:30;7.25;;;3.25;;
63782;SDS011;49925;52.522;5.732;2023-07-20T06:27:57;10.10;;;4.00;;
63782;SDS011;49925;52.522;5.732;2023-07-20T06:30:24;11.38;;;3.40;;
63782;SDS011;49925;52.522;5.732;2023-07-20T06:32:52;8.10;;;3.75;;
63782;SDS011;49925;52.522;5.732;2023-07-20T06:35:19;7.00;;;3.47;;
63782;SDS011;49925;52.522;5.732;2023-07-20T06:37:47;4.53;;;2.90;;
63782;SDS011;49925;52.522;5.732;2023-07-20T06:40:14;7.07;;;3.17;;
63782;SDS011;49925;52.522;5.732;2023-07-20T06:42:44;9.82;;;3.65;;
63782;SDS011;49925;52.522;5.732;2023-07-20T06:45:14;9.02;;;3.22;;
63782;SDS011;49925;52.522;5.732;2023-07-20T06:47:42;7.55;;;3.10;;
63782;SDS011;49925;52.522;5.732;2023-07-20T06:50:10;7.80;;;3.38;;
63782;SDS011;49925;52.522;5.732;2023-07-20T06:52:43;9.57;;;3.40;;
63782;SDS011;49925;52.522;5.732;2023-07-20T06:55:10;6.10;;;3.05;;
63782;SDS011;49925;52.522;5.732;2023-07-20T06:57:37;7.63;;;2.90;;
63782;SDS011;49925;52.522;5.732;2023-07-20T07:00:05;5.53;;;2.65;;
63782;SDS011;49925;52.522;5.732;2023-07-20T07:02:33;6.82;;;2.92;;
63782;SDS011;49925;52.522;5.732;2023-07-20T07:05:02;9.77;;;3.22;;
63782;SDS011;49925;52.522;5.732;2023-07-20T07:07:46;8.05;;;2.33;;
63782;SDS011;49925;52.522;5.732;2023-07-20T07:10:13;3.72;;;2.20;;
63782;SDS011;49925;52.522;5.732;2023-07-20T07:12:41;3.90;;;2.50;;
63782;SDS011;49925;52.522;5.732;2023-07-20T07:15:08;4.53;;;2.10;;
63782;SDS011;49925;52.522;5.732;2023-07-20T07:17:37;3.92;;;2.00;;
63782;SDS011;49925;52.522;5.732;2023-07-20T07:20:05;6.97;;;2.13;;
63782;SDS011;49925;52.522;5.732;2023-07-20T07:22:36;3.97;;;2.05;;
63782;SDS011;49925;52.522;5.732;2023-07-20T07:25:04;5.68;;;1.52;;
63782;SDS011;49925;52.522;5.732;2023-07-20T07:27:32;4.43;;;1.73;;
63782;SDS011;49925;52.522;5.732;2023-07-20T07:29:59;4.60;;;1.90;;
63782;SDS011;49925;52.522;5.732;2023-07-20T07:32:26;6.97;;;1.80;;
63782;SDS011;49925;52.522;5.732;2023-07-20T07:34:53;3.25;;;1.80;;
63782;SDS011;49925;52.522;5.732;2023-07-20T07:37:21;5.00;;;1.83;;
63782;SDS011;49925;52.522;5.732;2023-07-20T07:39:49;3.78;;;1.48;;
63782;SDS011;49925;52.522;5.732;2023-07-20T07:42:16;4.60;;;1.83;;
63782;SDS011;49925;52.522;5.732;2023-07-20T07:44:45;3.97;;;2.00;;
63782;SDS011;49925;52.522;5.732;2023-07-20T07:47:12;4.22;;;1.85;;
63782;SDS011;49925;52.522;5.732;2023-07-20T07:49:39;2.90;;;1.73;;
63782;SDS011;49925;52.522;5.732;2023-07-20T07:52:06;5.63;;;2.00;;
63782;SDS011;49925;52.522;5.732;2023-07-20T07:54:33;5.32;;;2.20;;
63782;SDS011;49925;52.522;5.732;2023-07-20T07:57:01;6.40;;;2.20;;
63782;SDS011;49925;52.522;5.732;2023-07-20T07:59:28;11.23;;;2.00;;
63782;SDS011;49925;52.522;5.732;2023-07-20T08:01:57;5.40;;;2.00;;
63782;SDS011;49925;52.522;5.732;2023-07-20T08:04:25;8.13;;;2.08;;
63782;SDS011;49925;52.522;5.732;2023-07-20T08:06:52;2.75;;;1.90;;
63782;SDS011;49925;52.522;5.732;2023-07-20T08:09:19;4.40;;;1.90;;
63782;SDS011;49925;52.522;5.732;2023-07-20T08:11:46;2.60;;;1.40;;
63782;SDS011;49925;52.522;5.732;2023-07-20T08:14:14;4.90;;;1.58;;
63782;SDS011;49925;52.522;5.732;2023-07-20T08:16:42;5.22;;;1.50;;
63782;SDS011;49925;52.522;5.732;2023-07-20T08:19:09;4.05;;;1.63;;
63782;SDS011;49925;52.522;5.732;2023-07-20T08:21:37;6.28;;;1.60;;
63782;SDS011;49925;52.522;5.732;2023-07-20T08:24:04;3.75;;;1.75;;
63782;SDS011;49925;52.522;5.732;2023-07-20T08:26:32;3.95;;;1.85;;
63782;SDS011;49925;52.522;5.732;2023-07-20T08:28:59;6.55;;;1.35;;
63782;SDS011;49925;52.522;5.732;2023-07-20T08:31:26;3.95;;;1.60;;
63782;SDS011;49925;52.522;5.732;2023-07-20T08:33:54;7.13;;;1.80;;
63782;SDS011;49925;52.522;5.732;2023-07-20T08:36:23;8.02;;;2.05;;
63782;SDS011;49925;52.522;5.732;2023-07-20T08:38:51;3.55;;;1.60;;
63782;SDS011;49925;52.522;5.732;2023-07-20T08:41:18;4.55;;;2.15;;
63782;SDS011;49925;52.522;5.732;2023-07-20T08:43:45;3.13;;;2.10;;
63782;SDS011;49925;52.522;5.732;2023-07-20T08:46:13;5.22;;;2.25;;
63782;SDS011;49925;52.522;5.732;2023-07-20T08:48:41;4.22;;;1.80;;
63782;SDS011;49925;52.522;5.732;2023-07-20T08:51:09;4.03;;;1.75;;
63782;SDS011;49925;52.522;5.732;2023-07-20T08:53:37;3.72;;;1.80;;
63782;SDS011;49925;52.522;5.732;2023-07-20T08:56:05;5.22;;;1.98;;
63782;SDS011;49925;52.522;5.732;2023-07-20T08:58:32;6.40;;;2.30;;
63782;SDS011;49925;52.522;5.732;2023-07-20T09:01:01;3.90;;;2.10;;
63782;SDS011;49925;52.522;5.732;2023-07-20T09:03:28;4.75;;;1.90;;
63782;SDS011;49925;52.522;5.732;2023-07-20T09:05:56;4.00;;;2.00;;
63782;SDS011;49925;52.522;5.732;2023-07-20T09:08:24;3.80;;;2.28;;
63782;SDS011;49925;52.522;5.732;2023-07-20T09:10:51;4.03;;;2.00;;
63782;SDS011;49925;52.522;5.732;2023-07-20T09:13:18;3.65;;;1.77;;
63782;SDS011;49925;52.522;5.732;2023-07-20T09:15:47;3.80;;;1.48;;
63782;SDS011;49925;52.522;5.732;2023-07-20T09:18:26;3.08;;;1.42;;
63782;SDS011;49925;52.522;5.732;2023-07-20T09:20:59;10.43;;;2.28;;
63782;SDS011;49925;52.522;5.732;2023-07-20T09:23:33;3.30;;;1.83;;
63782;SDS011;49925;52.522;5.732;2023-07-20T09:26:11;9.65;;;2.45;;
63782;SDS011;49925;52.522;5.732;2023-07-20T09:28:51;4.38;;;2.10;;
63782;SDS011;49925;52.522;5.732;2023-07-20T09:31:21;3.45;;;2.05;;
63782;SDS011;49925;52.522;5.732;2023-07-20T09:33:49;4.28;;;1.98;;
63782;SDS011;49925;52.522;5.732;2023-07-20T09:36:22;4.30;;;2.38;;
63782;SDS011;49925;52.522;5.732;2023-07-20T09:39:09;3.97;;;1.88;;
63782;SDS011;49925;52.522;5.732;2023-07-20T09:41:40;2.85;;;1.70;;
63782;SDS011;49925;52.522;5.732;2023-07-20T09:44:11;4.45;;;2.10;;
63782;SDS011;49925;52.522;5.732;2023-07-20T09:46:45;5.57;;;1.88;;
63782;SDS011;49925;52.522;5.732;2023-07-20T09:49:18;4.03;;;1.88;;
63782;SDS011;49925;52.522;5.732;2023-07-20T09:51:48;3.00;;;1.95;;
63782;SDS011;49925;52.522;5.732;2023-07-20T09:54:16;4.53;;;1.88;;
63782;SDS011;49925;52.522;5.732;2023-07-20T09:56:44;4.22;;;2.15;;
63782;SDS011;49925;52.522;5.732;2023-07-20T09:59:12;4.80;;;1.88;;
63782;SDS011;49925;52.522;5.732;2023-07-20T10:01:41;3.08;;;1.88;;
63782;SDS011;49925;52.522;5.732;2023-07-20T10:04:08;4.25;;;2.40;;
63782;SDS011;49925;52.522;5.732;2023-07-20T10:06:36;9.38;;;2.40;;
63782;SDS011;49925;52.522;5.732;2023-07-20T10:09:09;5.45;;;2.40;;
63782;SDS011;49925;52.522;5.732;2023-07-20T10:11:37;4.97;;;2.55;;
63782;SDS011;49925;52.522;5.732;2023-07-20T10:14:09;3.97;;;2.17;;
63782;SDS011;49925;52.522;5.732;2023-07-20T10:16:39;3.30;;;1.90;;
63782;SDS011;49925;52.522;5.732;2023-07-20T10:22:05;7.97;;;2.35;;
63782;SDS011;49925;52.522;5.732;2023-07-20T10:24:44;4.85;;;2.10;;
63782;SDS011;49925;52.522;5.732;2023-07-20T10:27:14;3.83;;;2.10;;
63782;SDS011;49925;52.522;5.732;2023-07-20T10:29:41;3.25;;;1.90;;
63782;SDS011;49925;52.522;5.732;2023-07-20T10:32:09;4.25;;;2.13;;
63782;SDS011;49925;52.522;5.732;2023-07-20T10:34:37;3.25;;;1.90;;
63782;SDS011;49925;52.522;5.732;2023-07-20T10:37:04;4.85;;;2.28;;
63782;SDS011;49925;52.522;5.732;2023-07-20T10:39:32;3.75;;;1.90;;
63782;SDS011;49925;52.522;5.732;2023-07-20T10:42:00;4.35;;;1.80;;
63782;SDS011;49925;52.522;5.732;2023-07-20T10:44:38;3.97;;;2.00;;
63782;SDS011;49925;52.522;5.732;2023-07-20T10:47:10;3.08;;;2.05;;
63782;SDS011;49925;52.522;5.732;2023-07-20T10:49:58;3.10;;;1.80;;
63782;SDS011;49925;52.522;5.732;2023-07-20T10:52:36;4.15;;;1.60;;
63782;SDS011;49925;52.522;5.732;2023-07-20T10:55:14;6.78;;;1.98;;
63782;SDS011;49925;52.522;5.732;2023-07-20T10:57:42;4.97;;;1.77;;
63782;SDS011;49925;52.522;5.732;2023-07-20T11:00:11;4.18;;;1.80;;
63782;SDS011;49925;52.522;5.732;2023-07-20T11:02:41;3.10;;;1.90;;
63782;SDS011;49925;52.522;5.732;2023-07-20T11:08:14;2.72;;;1.60;;
63782;SDS011;49925;52.522;5.732;2023-07-20T11:11:24;2.40;;;1.60;;
63782;SDS011;49925;52.522;5.732;2023-07-20T11:13:53;2.63;;;1.50;;
63782;SDS011;49925;52.522;5.732;2023-07-20T11:19:23;3.60;;;1.48;;
63782;SDS011;49925;52.522;5.732;2023-07-20T11:21:56;2.28;;;1.60;;
63782;SDS011;49925;52.522;5.732;2023-07-20T11:24:27;3.22;;;1.48;;
63782;SDS011;49925;52.522;5.732;2023-07-20T11:26:54;2.65;;;1.48;;
63782;SDS011;49925;52.522;5.732;2023-07-20T11:29:22;2.97;;;1.50;;
63782;SDS011;49925;52.522;5.732;2023-07-20T11:31:58;2.58;;;1.50;;
63782;SDS011;49925;52.522;5.732;2023-07-20T11:34:26;2.13;;;1.60;;
63782;SDS011;49925;52.522;5.732;2023-07-20T11:36:55;1.70;;;1.50;;
63782;SDS011;49925;52.522;5.732;2023-07-20T11:39:26;3.60;;;1.80;;
63782;SDS011;49925;52.522;5.732;2023-07-20T11:41:54;5.13;;;2.05;;
63782;SDS011;49925;52.522;5.732;2023-07-20T11:44:22;3.38;;;1.60;;
63782;SDS011;49925;52.522;5.732;2023-07-20T11:47:03;2.63;;;1.52;;
63782;SDS011;49925;52.522;5.732;2023-07-20T11:49:43;3.25;;;1.65;;
63782;SDS011;49925;52.522;5.732;2023-07-20T11:52:16;2.53;;;1.40;;
63782;SDS011;49925;52.522;5.732;2023-07-20T11:54:44;3.08;;;1.60;;
63782;SDS011;49925;52.522;5.732;2023-07-20T11:57:18;5.40;;;1.60;;
63782;SDS011;49925;52.522;5.732;2023-07-20T11:59:56;2.20;;;1.30;;
63782;SDS011;49925;52.522;5.732;2023-07-20T12:02:29;1.92;;;1.30;;
63782;SDS011;49925;52.522;5.732;2023-07-20T12:04:57;3.13;;;1.67;;
63782;SDS011;49925;52.522;5.732;2023-07-20T12:07:28;5.10;;;1.63;;
63782;SDS011;49925;52.522;5.732;2023-07-20T12:12:39;4.15;;;1.80;;
63782;SDS011;49925;52.522;5.732;2023-07-20T12:15:13;3.78;;;1.90;;
63782;SDS011;49925;52.522;5.732;2023-07-20T12:17:43;2.92;;;1.70;;
63782;SDS011;49925;52.522;5.732;2023-07-20T12:20:12;3.88;;;1.83;;
63782;SDS011;49925;52.522;5.732;2023-07-20T12:22:39;4.60;;;1.70;;
63782;SDS011;49925;52.522;5.732;2023-07-20T12:25:07;2.10;;;1.40;;
63782;SDS011;49925;52.522;5.732;2023-07-20T12:27:38;5.80;;;1.65;;
63782;SDS011;49925;52.522;5.732;2023-07-20T12:30:06;3.97;;;1.60;;
63782;SDS011;49925;52.522;5.732;2023-07-20T12:32:34;4.60;;;1.50;;
63782;SDS011;49925;52.522;5.732;2023-07-20T12:35:02;3.00;;;1.30;;
63782;SDS011;49925;52.522;5.732;2023-07-20T12:37:29;2.88;;;1.25;;
63782;SDS011;49925;52.522;5.732;2023-07-20T12:39:56;3.17;;;1.70;;
63782;SDS011;49925;52.522;5.732;2023-07-20T12:42:23;4.20;;;1.52;;
63782;SDS011;49925;52.522;5.732;2023-07-20T12:44:51;2.20;;;1.50;;
63782;SDS011;49925;52.522;5.732;2023-07-20T12:47:18;1.98;;;1.40;;
63782;SDS011;49925;52.522;5.732;2023-07-20T12:49:45;3.90;;;1.42;;
63782;SDS011;49925;52.522;5.732;2023-07-20T12:52:13;7.80;;;3.92;;
63782;SDS011;49925;52.522;5.732;2023-07-20T12:54:40;3.42;;;1.90;;
63782;SDS011;49925;52.522;5.732;2023-07-20T12:57:08;4.50;;;1.60;;
63782;SDS011;49925;52.522;5.732;2023-07-20T12:59:38;4.33;;;1.60;;
63782;SDS011;49925;52.522;5.732;2023-07-20T13:02:05;4.50;;;1.67;;
63782;SDS011;49925;52.522;5.732;2023-07-20T13:04:32;4.47;;;2.30;;
63782;SDS011;49925;52.522;5.732;2023-07-20T13:07:00;5.38;;;2.10;;
63782;SDS011;49925;52.522;5.732;2023-07-20T13:09:47;3.28;;;2.10;;
63782;SDS011;49925;52.522;5.732;2023-07-20T13:12:14;2.90;;;1.83;;
63782;SDS011;49925;52.522;5.732;2023-07-20T13:14:42;7.15;;;2.20;;
63782;SDS011;49925;52.522;5.732;2023-07-20T13:17:09;5.07;;;2.25;;
63782;SDS011;49925;52.522;5.732;2023-07-20T13:19:36;3.13;;;2.10;;
63782;SDS011;49925;52.522;5.732;2023-07-20T13:22:04;3.78;;;2.22;;
63782;SDS011;49925;52.522;5.732;2023-07-20T13:24:31;3.65;;;2.30;;
63782;SDS011;49925;52.522;5.732;2023-07-20T13:26:58;4.03;;;2.20;;
63782;SDS011;49925;52.522;5.732;2023-07-20T13:29:25;4.53;;;2.35;;
63782;SDS011;49925;52.522;5.732;2023-07-20T13:31:53;4.32;;;2.40;;
63782;SDS011;49925;52.522;5.732;2023-07-20T13:34:21;7.82;;;2.50;;
63782;SDS011;49925;52.522;5.732;2023-07-20T13:36:48;4.18;;;2.40;;
63782;SDS011;49925;52.522;5.732;2023-07-20T13:39:15;3.22;;;2.10;;
63782;SDS011;49925;52.522;5.732;2023-07-20T13:41:44;3.13;;;2.03;;
63782;SDS011;49925;52.522;5.732;2023-07-20T13:44:13;5.40;;;2.20;;
63782;SDS011;49925;52.522;5.732;2023-07-20T13:46:42;3.03;;;2.28;;
63782;SDS011;49925;52.522;5.732;2023-07-20T13:49:10;3.35;;;2.30;;
63782;SDS011;49925;52.522;5.732;2023-07-20T13:51:39;4.75;;;2.50;;
63782;SDS011;49925;52.522;5.732;2023-07-20T13:54:08;4.47;;;2.33;;
63782;SDS011;49925;52.522;5.732;2023-07-20T13:56:38;3.07;;;2.17;;
63782;SDS011;49925;52.522;5.732;2023-07-20T13:59:08;4.90;;;2.05;;
63782;SDS011;49925;52.522;5.732;2023-07-20T14:01:35;4.03;;;2.03;;
63782;SDS011;49925;52.522;5.732;2023-07-20T14:04:04;3.88;;;1.90;;
63782;SDS011;49925;52.522;5.732;2023-07-20T14:06:32;4.07;;;2.00;;
63782;SDS011;49925;52.522;5.732;2023-07-20T14:08:59;3.45;;;2.00;;
63782;SDS011;49925;52.522;5.732;2023-07-20T14:11:27;5.95;;;2.08;;
63782;SDS011;49925;52.522;5.732;2023-07-20T14:13:57;5.35;;;1.80;;
63782;SDS011;49925;52.522;5.732;2023-07-20T14:16:27;5.57;;;1.83;;
63782;SDS011;49925;52.522;5.732;2023-07-20T14:18:57;3.30;;;1.80;;
63782;SDS011;49925;52.522;5.732;2023-07-20T14:21:24;3.70;;;1.80;;
63782;SDS011;49925;52.522;5.732;2023-07-20T14:23:52;3.17;;;1.80;;
63782;SDS011;49925;52.522;5.732;2023-07-20T14:26:20;5.10;;;1.90;;
63782;SDS011;49925;52.522;5.732;2023-07-20T14:28:49;5.88;;;2.10;;
63782;SDS011;49925;52.522;5.732;2023-07-20T14:31:16;6.50;;;2.83;;
63782;SDS011;49925;52.522;5.732;2023-07-20T14:33:45;6.25;;;3.40;;
63782;SDS011;49925;52.522;5.732;2023-07-20T14:36:13;4.13;;;2.10;;
63782;SDS011;49925;52.522;5.732;2023-07-20T14:38:40;4.13;;;2.10;;
63782;SDS011;49925;52.522;5.732;2023-07-20T14:41:07;5.38;;;2.00;;
63782;SDS011;49925;52.522;5.732;2023-07-20T14:43:34;4.68;;;2.00;;
63782;SDS011;49925;52.522;5.732;2023-07-20T14:46:02;3.75;;;1.90;;
63782;SDS011;49925;52.522;5.732;2023-07-20T14:48:29;4.93;;;2.17;;
63782;SDS011;49925;52.522;5.732;2023-07-20T14:50:57;3.65;;;1.98;;
63782;SDS011;49925;52.522;5.732;2023-07-20T14:53:27;3.10;;;1.90;;
63782;SDS011;49925;52.522;5.732;2023-07-20T14:56:01;2.47;;;1.70;;
63782;SDS011;49925;52.522;5.732;2023-07-20T14:58:29;6.00;;;1.73;;
63782;SDS011;49925;52.522;5.732;2023-07-20T15:01:00;2.78;;;1.85;;
63782;SDS011;49925;52.522;5.732;2023-07-20T15:03:27;3.72;;;1.83;;
63782;SDS011;49925;52.522;5.732;2023-07-20T15:05:57;3.83;;;1.98;;
63782;SDS011;49925;52.522;5.732;2023-07-20T15:08:25;3.85;;;1.80;;
63782;SDS011;49925;52.522;5.732;2023-07-20T15:10:52;4.90;;;1.90;;
63782;SDS011;49925;52.522;5.732;2023-07-20T15:13:19;7.15;;;2.20;;
63782;SDS011;49925;52.522;5.732;2023-07-20T15:15:46;6.75;;;2.05;;
63782;SDS011;49925;52.522;5.732;2023-07-20T15:18:14;4.93;;;2.00;;
63782;SDS011;49925;52.522;5.732;2023-07-20T15:20:41;7.10;;;2.13;;
63782;SDS011;49925;52.522;5.732;2023-07-20T15:23:08;4.60;;;2.30;;
63782;SDS011;49925;52.522;5.732;2023-07-20T15:25:36;5.45;;;2.20;;
63782;SDS011;49925;52.522;5.732;2023-07-20T15:28:04;4.07;;;2.10;;
63782;SDS011;49925;52.522;5.732;2023-07-20T15:30:31;5.38;;;2.03;;
63782;SDS011;49925;52.522;5.732;2023-07-20T15:33:01;5.10;;;2.40;;
63782;SDS011;49925;52.522;5.732;2023-07-20T15:35:31;4.20;;;2.00;;
63782;SDS011;49925;52.522;5.732;2023-07-20T15:37:59;6.10;;;2.08;;
63782;SDS011;49925;52.522;5.732;2023-07-20T15:40:26;3.72;;;2.20;;
63782;SDS011;49925;52.522;5.732;2023-07-20T15:42:53;3.17;;;1.95;;
63782;SDS011;49925;52.522;5.732;2023-07-20T15:45:20;3.58;;;2.00;;
63782;SDS011;49925;52.522;5.732;2023-07-20T15:47:48;6.00;;;2.00;;
63782;SDS011;49925;52.522;5.732;2023-07-20T15:50:15;6.95;;;2.20;;
63782;SDS011;49925;52.522;5.732;2023-07-20T15:52:46;4.20;;;1.80;;
63782;SDS011;49925;52.522;5.732;2023-07-20T15:55:15;6.60;;;2.50;;
63782;SDS011;49925;52.522;5.732;2023-07-20T15:57:42;6.53;;;2.00;;
63782;SDS011;49925;52.522;5.732;2023-07-20T16:00:10;4.05;;;2.00;;
63782;SDS011;49925;52.522;5.732;2023-07-20T16:02:37;8.38;;;2.22;;
63782;SDS011;49925;52.522;5.732;2023-07-20T16:05:06;5.18;;;2.17;;
63782;SDS011;49925;52.522;5.732;2023-07-20T16:07:36;3.00;;;1.80;;
63782;SDS011;49925;52.522;5.732;2023-07-20T16:10:03;4.45;;;1.90;;
63782;SDS011;49925;52.522;5.732;2023-07-20T16:12:34;3.50;;;2.00;;
63782;SDS011;49925;52.522;5.732;2023-07-20T16:15:02;2.63;;;1.83;;
63782;SDS011;49925;52.522;5.732;2023-07-20T16:17:32;6.15;;;2.00;;
63782;SDS011;49925;52.522;5.732;2023-07-20T16:20:00;4.60;;;2.03;;
63782;SDS011;49925;52.522;5.732;2023-07-20T16:22:27;2.83;;;1.90;;
63782;SDS011;49925;52.522;5.732;2023-07-20T16:24:54;4.15;;;1.85;;
63782;SDS011;49925;52.522;5.732;2023-07-20T16:27:21;2.35;;;1.60;;
63782;SDS011;49925;52.522;5.732;2023-07-20T16:29:48;4.45;;;2.15;;
63782;SDS011;49925;52.522;5.732;2023-07-20T16:32:16;2.92;;;1.67;;
63782;SDS011;49925;52.522;5.732;2023-07-20T16:34:43;3.33;;;1.92;;
63782;SDS011;49925;52.522;5.732;2023-07-20T16:37:14;4.30;;;1.80;;
63782;SDS011;49925;52.522;5.732;2023-07-20T16:39:44;4.63;;;1.90;;
63782;SDS011;49925;52.522;5.732;2023-07-20T16:42:13;3.95;;;1.75;;
63782;SDS011;49925;52.522;5.732;2023-07-20T16:44:40;5.07;;;1.90;;
63782;SDS011;49925;52.522;5.732;2023-07-20T16:47:08;2.78;;;1.75;;
63782;SDS011;49925;52.522;5.732;2023-07-20T16:49:36;2.08;;;1.63;;
63782;SDS011;49925;52.522;5.732;2023-07-20T16:52:03;2.95;;;1.90;;
63782;SDS011;49925;52.522;5.732;2023-07-20T16:54:31;5.63;;;1.95;;
63782;SDS011;49925;52.522;5.732;2023-07-20T16:56:58;3.40;;;1.90;;
63782;SDS011;49925;52.522;5.732;2023-07-20T16:59:25;2.53;;;1.85;;
63782;SDS011;49925;52.522;5.732;2023-07-20T17:01:52;3.67;;;2.10;;
63782;SDS011;49925;52.522;5.732;2023-07-20T17:04:19;2.20;;;1.60;;
63782;SDS011;49925;52.522;5.732;2023-07-20T17:06:47;3.80;;;1.70;;